Time;durP1;ratioP1;P1;durP2;ratioP2;P2;SDS_P1;SDS_P2;PMS_P1;PMS_P2;Temp;Humidity;BMP_temperature;BMP_pressure;BME280_temperature;BME280_humidity;BME280_pressure;Samples;Min_cycle;Max_cycle;Signal;HPM_P1;HPM_P2
2022/10/02 00:01:11;;;;;;;;;;;;;;;11.79;91.91;96533.75;4945323;29;19994;-84
2022/10/02 00:03:41;;;;;;;;;;;;;;;11.97;91.52;96543.59;4944855;29;19922;-85
2022/10/02 00:06:11;;;;;;;;;;;;;;;11.90;92.28;96540.53;4947123;29;20379;-85
2022/10/02 00:08:40;;;;;;;;;;;;;;;11.87;91.96;96536.53;4944937;29;19923;-84
2022/10/02 00:11:08;;;;;;;;;;;;;;;11.88;92.17;96545.53;4926724;29;20431;-84
2022/10/02 00:13:37;;;;;;;;;;;;;;;11.91;92.33;96550.34;4925217;29;19923;-81
2022/10/02 00:16:08;;;;;;;;;;;;;;;11.83;92.92;96545.69;4923457;29;19929;-85
2022/10/02 00:18:37;;;;;;;;;;;;;;;11.81;93.57;96543.25;4924191;29;19923;-82
2022/10/02 00:21:13;;;;;;;;;;;;;;;11.88;93.62;96545.53;4925049;29;20277;-82
2022/10/02 00:23:41;;;;;;;;;;;;;;;11.83;92.77;96549.19;4908981;29;20375;-82
2022/10/02 00:26:10;;;;;;;;;;;;;;;11.95;93.08;96554.00;4945568;29;19946;-81
2022/10/02 00:28:44;;;;;;;;;;;;;;;11.71;93.49;96555.28;4924123;29;19923;-84
2022/10/02 00:31:28;;;;;;;;;;;;;;;11.76;93.69;96563.31;4923617;29;19927;-82
2022/10/02 00:34:05;;;;;;;;;;;;;;;11.81;93.86;96562.34;4907315;29;19927;-84
2022/10/02 00:36:39;;;;;;;;;;;;;;;11.85;92.97;96568.81;4925967;29;19923;-81
2022/10/02 00:39:10;;;;;;;;;;;;;;;11.74;93.62;96571.03;4924986;29;19923;-83
2022/10/02 00:41:47;;;;;;;;;;;;;;;11.90;93.48;96578.72;4926795;29;19930;-82
2022/10/02 00:44:23;;;;;;;;;;;;;;;11.90;93.31;96585.03;4923638;29;19983;-82
2022/10/02 00:46:56;;;;;;;;;;;;;;;11.97;92.99;96585.34;4927087;29;19922;-84
2022/10/02 00:49:32;;;;;;;;;;;;;;;11.77;93.92;96589.47;4945621;29;19950;-84
2022/10/02 00:52:05;;;;;;;;;;;;;;;11.73;95.05;96607.59;4926674;29;19923;-81
2022/10/02 00:54:46;;;;;;;;;;;;;;;11.84;96.13;96604.56;4909122;29;19930;-83
2022/10/02 00:57:20;;;;;;;;;;;;;;;11.82;95.95;96599.44;4911944;29;19930;-83
2022/10/02 00:59:53;;;;;;;;;;;;;;;11.72;96.66;96597.78;4928658;29;19923;-84
2022/10/02 01:02:38;;;;;;;;;;;;;;;11.59;97.49;96600.66;4929116;29;19922;-84
2022/10/02 01:05:08;;;;;;;;;;;;;;;11.63;98.77;96616.06;4912842;29;19923;-84
2022/10/02 01:07:37;;;;;;;;;;;;;;;11.44;100.00;96619.09;4930990;29;19947;-84
2022/10/02 01:10:04;;;;;;;;;;;;;;;11.30;100.00;96609.41;4930799;29;19923;-82
2022/10/02 01:12:30;;;;;;;;;;;;;;;11.31;100.00;96613.75;4930635;29;20494;-85
2022/10/02 01:14:56;;;;;;;;;;;;;;;11.39;100.00;96607.53;4930122;29;19990;-82
2022/10/02 01:17:24;;;;;;;;;;;;;;;11.45;100.00;96622.63;4929097;29;19923;-83
2022/10/02 01:19:51;;;;;;;;;;;;;;;11.52;100.00;96619.41;4927602;29;20406;-84
2022/10/02 01:22:22;;;;;;;;;;;;;;;11.42;100.00;96615.06;4918256;29;19924;-83
2022/10/02 01:24:51;;;;;;;;;;;;;;;11.38;100.00;96622.25;4910504;29;19927;-84
2022/10/02 01:27:17;;;;;;;;;;;;;;;11.50;100.00;96625.19;4919196;29;19976;-86
2022/10/02 01:29:45;;;;;;;;;;;;;;;11.36;100.00;96628.03;4909085;29;19923;-84
2022/10/02 01:32:12;;;;;;;;;;;;;;;11.35;100.00;96622.91;4905887;29;19948;-82
2022/10/02 01:34:38;;;;;;;;;;;;;;;11.43;100.00;96630.28;4906859;29;19931;-84
2022/10/02 01:37:05;;;;;;;;;;;;;;;11.38;100.00;96622.25;4906996;29;19927;-83
2022/10/02 01:39:32;;;;;;;;;;;;;;;11.34;100.00;96616.66;4907795;29;19924;-83
2022/10/02 01:42:00;;;;;;;;;;;;;;;11.26;100.00;96605.72;4908141;29;19927;-83
2022/10/02 01:44:26;;;;;;;;;;;;;;;11.32;100.00;96593.53;4909065;29;19927;-85
2022/10/02 01:46:58;;;;;;;;;;;;;;;11.28;100.00;96582.50;4913146;29;19923;-85
2022/10/02 01:49:36;;;;;;;;;;;;;;;11.26;100.00;96590.16;4928667;29;19958;-82
2022/10/02 01:52:09;;;;;;;;;;;;;;;11.21;100.00;96591.09;4911738;29;20379;-81
2022/10/02 01:54:43;;;;;;;;;;;;;;;11.30;100.00;96587.59;4912013;29;19923;-81
2022/10/02 01:57:15;;;;;;;;;;;;;;;11.24;100.00;96593.22;4911349;29;19930;-81
2022/10/02 01:59:47;;;;;;;;;;;;;;;11.26;100.00;96592.09;4911321;29;19924;-80
2022/10/02 02:02:17;;;;;;;;;;;;;;;11.13;100.00;96578.25;4926554;29;19931;-81
2022/10/02 02:04:49;;;;;;;;;;;;;;;11.13;100.00;96577.47;4911041;29;19923;-83
2022/10/02 02:07:19;;;;;;;;;;;;;;;11.08;100.00;96585.78;4909413;29;19927;-82
2022/10/02 02:09:51;;;;;;;;;;;;;;;11.18;100.00;96601.84;4909780;29;20370;-81
2022/10/02 02:12:22;;;;;;;;;;;;;;;11.36;100.00;96600.78;4914393;29;19986;-81
2022/10/02 02:14:52;;;;;;;;;;;;;;;11.34;100.00;96615.84;4915872;29;19923;-82
2022/10/02 02:17:23;;;;;;;;;;;;;;;11.42;100.00;96613.13;4915239;29;19924;-82
2022/10/02 02:19:52;;;;;;;;;;;;;;;11.34;100.00;96622.09;4916213;29;19924;-80
2022/10/02 02:22:22;;;;;;;;;;;;;;;11.30;100.00;96615.69;4915458;29;20295;-80
2022/10/02 02:24:52;;;;;;;;;;;;;;;11.24;100.00;96612.28;4926884;29;19982;-79
2022/10/02 02:27:22;;;;;;;;;;;;;;;11.33;100.00;96616.94;4929875;29;19926;-82
2022/10/02 02:29:51;;;;;;;;;;;;;;;11.41;100.00;96613.47;4929191;29;19971;-80
2022/10/02 02:32:21;;;;;;;;;;;;;;;11.35;100.00;96612.81;4928030;29;19933;-81
2022/10/02 02:34:51;;;;;;;;;;;;;;;11.46;100.00;96610.59;4909756;29;19974;-82
2022/10/02 02:37:20;;;;;;;;;;;;;;;11.52;100.00;96601.13;4909880;29;19923;-81
2022/10/02 02:39:49;;;;;;;;;;;;;;;11.45;100.00;96607.06;4907659;29;19927;-81
2022/10/02 02:42:18;;;;;;;;;;;;;;;11.27;100.00;96610.03;4910528;29;20457;-81
2022/10/02 02:44:48;;;;;;;;;;;;;;;11.22;100.00;96603.63;4909759;29;19929;-79
2022/10/02 02:47:17;;;;;;;;;;;;;;;11.31;100.00;96608.28;4913758;29;19930;-80
2022/10/02 02:49:49;;;;;;;;;;;;;;;11.23;100.00;96596.25;4927579;29;19965;-80
2022/10/02 02:52:19;;;;;;;;;;;;;;;11.42;100.00;96590.50;4944920;29;20036;-82
2022/10/02 02:54:48;;;;;;;;;;;;;;;11.22;100.00;96598.19;4947335;29;19923;-80
2022/10/02 02:57:15;;;;;;;;;;;;;;;11.36;100.00;96597.25;4936859;29;20367;-80
2022/10/02 02:59:44;;;;;;;;;;;;;;;11.33;100.00;96614.22;4926228;29;19934;-81
2022/10/02 03:02:12;;;;;;;;;;;;;;;11.52;100.00;96595.69;4926609;29;20002;-81
2022/10/02 03:04:38;;;;;;;;;;;;;;;11.59;100.00;96592.47;4928359;29;19923;-81
2022/10/02 03:07:06;;;;;;;;;;;;;;;11.41;100.00;96616.97;4916179;29;21314;-82
2022/10/02 03:09:33;;;;;;;;;;;;;;;11.38;100.00;96622.25;4929369;29;19947;-80
2022/10/02 03:12:12;;;;;;;;;;;;;;;11.43;100.00;96620.22;4913217;29;19923;-81
2022/10/02 03:14:48;;;;;;;;;;;;;;;11.42;100.00;96617.78;4926828;29;19929;-81
2022/10/02 03:17:22;;;;;;;;;;;;;;;11.37;100.00;96609.75;4909673;29;19927;-81
2022/10/02 03:19:51;;;;;;;;;;;;;;;11.41;100.00;96608.81;4930071;29;19923;-81
2022/10/02 03:22:21;;;;;;;;;;;;;;;11.54;99.38;96598.91;4929882;29;20375;-81
2022/10/02 03:24:50;;;;;;;;;;;;;;;11.43;99.83;96608.47;4929698;29;20366;-81
2022/10/02 03:27:19;;;;;;;;;;;;;;;11.45;100.00;96612.50;4936389;29;19922;-81
2022/10/02 03:29:50;;;;;;;;;;;;;;;11.46;100.00;96618.75;4911751;29;19923;-81
2022/10/02 03:32:18;;;;;;;;;;;;;;;11.57;99.49;96614.63;4929274;29;19923;-82
2022/10/02 03:34:45;;;;;;;;;;;;;;;11.45;99.21;96604.31;4911511;29;19957;-81
2022/10/02 03:37:11;;;;;;;;;;;;;;;11.53;99.20;96602.72;4946981;29;19923;-81
2022/10/02 03:39:40;;;;;;;;;;;;;;;11.49;99.31;96609.97;4930876;29;19923;-80
2022/10/02 03:42:06;;;;;;;;;;;;;;;11.59;98.67;96612.41;4947126;29;19929;-81
2022/10/02 03:44:32;;;;;;;;;;;;;;;11.67;98.40;96591.69;4948153;29;19922;-82
2022/10/02 03:46:59;;;;;;;;;;;;;;;11.76;98.51;96587.84;4949600;29;19923;-81
2022/10/02 03:49:27;;;;;;;;;;;;;;;11.95;97.37;96579.41;4930554;29;19926;-80
2022/10/02 03:51:54;;;;;;;;;;;;;;;12.05;96.74;96585.63;4939468;29;20006;-81
2022/10/02 03:54:21;;;;;;;;;;;;;;;12.00;96.64;96597.50;4927295;29;19951;-81
2022/10/02 03:56:53;;;;;;;;;;;;;;;11.95;97.11;96586.75;4932243;29;20304;-81
2022/10/02 03:59:28;;;;;;;;;;;;;;;12.07;96.67;96592.41;4929150;29;19923;-81
2022/10/02 04:01:55;;;;;;;;;;;;;;;12.03;96.91;96591.44;4944376;29;20302;-80
2022/10/02 04:04:23;;;;;;;;;;;;;;;11.92;96.70;96588.22;4943709;29;19931;-80
2022/10/02 04:06:55;;;;;;;;;;;;;;;11.87;97.51;96590.31;4944000;29;19923;-80
2022/10/02 04:09:25;;;;;;;;;;;;;;;11.87;97.37;96595.75;4926336;29;19931;-80
2022/10/02 04:11:55;;;;;;;;;;;;;;;11.86;97.15;96596.88;4944009;29;19922;-80
2022/10/02 04:14:24;;;;;;;;;;;;;;;11.94;97.01;96596.88;4942724;29;19938;-80
2022/10/02 04:16:56;;;;;;;;;;;;;;;11.95;97.17;96597.69;4943009;29;20456;-78
2022/10/02 04:19:25;;;;;;;;;;;;;;;11.83;97.00;96594.78;4925239;29;19923;-79
2022/10/02 04:21:56;;;;;;;;;;;;;;;11.77;97.99;96605.81;4935679;29;19923;-80
2022/10/02 04:24:28;;;;;;;;;;;;;;;11.68;98.49;96605.00;4923826;29;20282;-78
2022/10/02 04:27:00;;;;;;;;;;;;;;;11.70;98.93;96615.63;4928736;29;19950;-79
2022/10/02 04:29:28;;;;;;;;;;;;;;;11.68;98.87;96605.00;4942457;29;19929;-79
2022/10/02 04:32:05;;;;;;;;;;;;;;;11.72;99.52;96599.72;4943027;29;20283;-80
2022/10/02 04:34:31;;;;;;;;;;;;;;;11.64;99.40;96604.06;4939803;29;20294;-81
2022/10/02 04:37:10;;;;;;;;;;;;;;;11.61;99.97;96604.69;4935840;29;19929;-79
2022/10/02 04:39:43;;;;;;;;;;;;;;;11.69;100.00;96598.44;4905934;29;20061;-81
2022/10/02 04:42:15;;;;;;;;;;;;;;;11.72;100.00;96595.06;4922827;29;19929;-80
2022/10/02 04:44:48;;;;;;;;;;;;;;;11.55;100.00;96594.25;4922885;29;20387;-78
2022/10/02 04:47:25;;;;;;;;;;;;;;;11.53;100.00;96591.81;4912709;29;19926;-80
2022/10/02 04:50:01;;;;;;;;;;;;;;;11.54;100.00;96598.06;4943103;29;20309;-80
2022/10/02 04:52:39;;;;;;;;;;;;;;;11.59;100.00;96596.03;4904477;29;19954;-80
2022/10/02 04:55:18;;;;;;;;;;;;;;;11.58;100.00;96599.06;4911979;29;20009;-78
2022/10/02 04:57:56;;;;;;;;;;;;;;;11.39;100.00;96607.53;4922899;29;20386;-80
2022/10/02 05:00:23;;;;;;;;;;;;;;;11.50;100.00;96606.91;4932832;29;19927;-88
2022/10/02 05:03:02;;;;;;;;;;;;;;;11.43;100.00;96611.22;4935762;29;19930;-88
2022/10/02 05:05:40;;;;;;;;;;;;;;;11.41;100.00;96603.34;4938634;29;19982;-89
2022/10/02 05:08:21;;;;;;;;;;;;;;;11.39;100.00;96604.81;4937394;29;19923;-85
2022/10/02 05:10:59;;;;;;;;;;;;;;;11.44;100.00;96621.00;4935371;29;19929;-89
2022/10/02 05:13:38;;;;;;;;;;;;;;;11.47;100.00;96620.38;4936022;29;19994;-88
2022/10/02 05:16:13;;;;;;;;;;;;;;;11.43;100.00;96608.47;4943849;28;19929;-87
2022/10/02 05:18:49;;;;;;;;;;;;;;;11.36;100.00;96613.59;4926722;29;19930;-88
2022/10/02 05:21:26;;;;;;;;;;;;;;;11.29;100.00;96618.72;4938535;28;19911;-87
2022/10/02 05:24:00;;;;;;;;;;;;;;;11.36;100.00;96613.59;4934008;29;19923;-88
2022/10/02 05:26:44;;;;;;;;;;;;;;;11.42;100.00;96612.34;4933771;29;19923;-86
2022/10/02 05:29:20;;;;;;;;;;;;;;;11.45;100.00;96607.06;4929297;29;19927;-87
2022/10/02 05:31:54;;;;;;;;;;;;;;;11.54;100.00;96609.81;4929818;29;19923;-84
2022/10/02 05:34:30;;;;;;;;;;;;;;;11.55;100.00;96599.72;4931991;29;19911;-86
2022/10/02 05:37:05;;;;;;;;;;;;;;;11.57;100.00;96602.91;4932737;29;19990;-88
2022/10/02 05:39:34;;;;;;;;;;;;;;;11.56;100.00;96599.38;4932436;29;19923;-88
2022/10/02 05:42:05;;;;;;;;;;;;;;;11.53;100.00;96599.19;4931428;29;19974;-88
2022/10/02 05:44:36;;;;;;;;;;;;;;;11.44;100.00;96604.66;4930332;29;19927;-88
2022/10/02 05:47:07;;;;;;;;;;;;;;;11.32;100.00;96607.16;4930929;29;19911;-83
2022/10/02 05:49:35;;;;;;;;;;;;;;;11.38;100.00;96616.81;4931918;29;19923;-85
2022/10/02 05:52:04;;;;;;;;;;;;;;;11.28;100.00;96607.03;4935501;29;19927;-82
2022/10/02 05:54:36;;;;;;;;;;;;;;;11.23;100.00;96599.78;4900579;29;19922;-87
2022/10/02 05:57:07;;;;;;;;;;;;;;;11.28;100.00;96612.47;4925673;29;20302;-80
2022/10/02 05:59:38;;;;;;;;;;;;;;;11.38;100.00;96619.53;4918225;29;20371;-83
2022/10/02 06:02:10;;;;;;;;;;;;;;;11.48;100.00;96622.81;4918766;29;19923;-81
2022/10/02 06:04:39;;;;;;;;;;;;;;;11.50;100.00;96617.81;4932434;29;20286;-82
2022/10/02 06:07:07;;;;;;;;;;;;;;;11.45;100.00;96611.72;4935915;29;19923;-81
2022/10/02 06:09:35;;;;;;;;;;;;;;;11.57;100.00;96614.63;4937677;29;19927;-81
2022/10/02 06:12:04;;;;;;;;;;;;;;;11.64;100.00;96609.50;4921063;29;19922;-81
2022/10/02 06:14:33;;;;;;;;;;;;;;;11.68;100.00;96615.91;4936070;29;19923;-82
2022/10/02 06:17:04;;;;;;;;;;;;;;;11.67;100.00;96617.03;4915415;29;20438;-80
2022/10/02 06:19:34;;;;;;;;;;;;;;;11.68;100.00;96626.81;4919219;29;19938;-80
2022/10/02 06:22:05;;;;;;;;;;;;;;;11.66;100.00;96618.16;4928435;29;19927;-82
2022/10/02 06:24:37;;;;;;;;;;;;;;;11.66;100.00;96617.38;4935603;29;19923;-79
2022/10/02 06:27:09;;;;;;;;;;;;;;;11.63;100.00;96628.91;4930065;29;19946;-79
2022/10/02 06:29:39;;;;;;;;;;;;;;;11.60;100.00;96627.63;4918566;29;19923;-83
2022/10/02 06:32:13;;;;;;;;;;;;;;;11.48;100.00;96628.25;4922969;29;19927;-85
2022/10/02 06:34:40;;;;;;;;;;;;;;;11.55;100.00;96627.78;4924715;29;19927;-82
2022/10/02 06:37:21;;;;;;;;;;;;;;;11.35;100.00;96629.16;4919405;29;19927;-84
2022/10/02 06:39:56;;;;;;;;;;;;;;;11.34;100.00;96632.22;4920846;29;19949;-84
2022/10/02 06:42:31;;;;;;;;;;;;;;;11.27;100.00;96637.31;4927610;29;19931;-85
2022/10/02 06:45:05;;;;;;;;;;;;;;;11.36;100.00;96632.69;4926731;29;19927;-84
2022/10/02 06:47:39;;;;;;;;;;;;;;;11.21;100.00;96634.72;4913911;29;19947;-84
2022/10/02 06:50:19;;;;;;;;;;;;;;;11.21;100.00;96628.47;4914346;29;19931;-85
2022/10/02 06:52:50;;;;;;;;;;;;;;;11.15;100.00;96630.53;4942384;29;19923;-86
2022/10/02 06:55:22;;;;;;;;;;;;;;;11.20;100.00;96626.88;4944976;29;20327;-84
2022/10/02 06:57:56;;;;;;;;;;;;;;;11.08;100.00;96630.19;4950152;29;19959;-88
2022/10/02 07:00:23;;;;;;;;;;;;;;;11.10;100.00;96627.94;4959196;29;19922;-89
2022/10/02 07:03:08;;;;;;;;;;;;;;;10.89;100.00;96632.34;4961124;28;19982;-89
2022/10/02 07:05:53;;;;;;;;;;;;;;;10.95;100.00;96622.91;4937806;29;19922;-88
2022/10/02 07:08:28;;;;;;;;;;;;;;;10.85;100.00;96628.63;4955732;29;19922;-88
2022/10/02 07:10:58;;;;;;;;;;;;;;;10.90;100.00;96623.03;4955559;29;19922;-84
2022/10/02 07:13:34;;;;;;;;;;;;;;;10.96;100.00;96624.50;4938754;28;19913;-87
2022/10/02 07:16:08;;;;;;;;;;;;;;;11.11;100.00;96637.72;4938812;29;19923;-82
2022/10/02 07:18:42;;;;;;;;;;;;;;;11.17;99.77;96641.94;4948499;29;19927;-84
2022/10/02 07:21:13;;;;;;;;;;;;;;;11.12;99.57;96646.69;4943876;29;19929;-83
2022/10/02 07:23:57;;;;;;;;;;;;;;;11.16;99.62;96643.03;4944607;29;19923;-81
2022/10/02 07:26:37;;;;;;;;;;;;;;;11.16;100.00;96653.94;4928257;29;19938;-80
2022/10/02 07:29:11;;;;;;;;;;;;;;;11.20;100.00;96649.47;4936414;29;19923;-84
2022/10/02 07:31:45;;;;;;;;;;;;;;;11.32;100.00;96650.78;4930581;29;20378;-83
2022/10/02 07:34:18;;;;;;;;;;;;;;;11.40;100.00;96647.31;4948569;29;19927;-84
2022/10/02 07:36:48;;;;;;;;;;;;;;;11.47;100.00;96650.38;4946442;29;19954;-82
2022/10/02 07:39:27;;;;;;;;;;;;;;;11.42;100.00;96659.50;4946804;29;20406;-84
2022/10/02 07:42:08;;;;;;;;;;;;;;;11.55;100.00;96651.53;4953025;29;19922;-86
2022/10/02 07:45:01;;;;;;;;;;;;;;;11.62;100.00;96660.03;4953511;29;19923;-86
2022/10/02 07:47:35;;;;;;;;;;;;;;;11.68;100.00;96651.38;4935062;29;19923;-82
2022/10/02 07:50:07;;;;;;;;;;;;;;;11.72;100.00;96657.81;4927893;29;19949;-85
2022/10/02 07:52:38;;;;;;;;;;;;;;;11.76;100.00;96656.06;4935458;29;19919;-87
2022/10/02 07:55:14;;;;;;;;;;;;;;;11.80;100.00;96649.94;4917765;29;19923;-87
2022/10/02 07:57:45;;;;;;;;;;;;;;;11.89;100.00;96654.34;4936217;29;19917;-88
2022/10/02 08:00:14;;;;;;;;;;;;;;;11.93;100.00;96651.78;4935134;29;20399;-86
2022/10/02 08:02:45;;;;;;;;;;;;;;;11.99;100.00;96653.22;4936138;29;19939;-87
2022/10/02 08:05:17;;;;;;;;;;;;;;;12.00;100.00;96644.72;4934337;29;20000;-88
2022/10/02 08:07:45;;;;;;;;;;;;;;;12.06;100.00;96639.94;4934647;29;19926;-88
2022/10/02 08:10:15;;;;;;;;;;;;;;;12.01;100.00;96635.44;4935756;29;19927;-88
2022/10/02 08:15:37;;;;;;;;;;;;;;;12.04;100.00;96636.69;4987012;23;19930;-83
2022/10/02 08:18:07;;;;;;;;;;;;;;;12.03;100.00;96632.38;5063517;23;19935;-86
2022/10/02 08:20:36;;;;;;;;;;;;;;;12.09;100.00;96633.00;4938692;29;19923;-87
2022/10/02 08:31:26;;;;;;;;;;;;;;;12.17;100.00;96627.56;5180232;23;19923;-87
2022/10/02 08:33:54;;;;;;;;;;;;;;;12.19;100.00;96636.22;4973018;28;19960;-86
2022/10/02 08:44:21;;;;;;;;;;;;;;;12.46;100.00;96637.00;5571388;23;19906;-85
2022/10/02 08:47:02;;;;;;;;;;;;;;;12.48;100.00;96634.78;4977044;28;19934;-86
2022/10/02 08:49:46;;;;;;;;;;;;;;;12.40;100.00;96636.38;4942628;29;19923;-86
2022/10/02 08:52:33;;;;;;;;;;;;;;;12.53;100.00;96629.16;4970423;23;19927;-85
2022/10/02 08:55:21;;;;;;;;;;;;;;;12.60;100.00;96617.72;4970544;28;19978;-85
2022/10/02 08:58:03;;;;;;;;;;;;;;;12.64;100.00;96608.56;4955220;29;19974;-85
2022/10/02 09:00:36;;;;;;;;;;;;;;;12.62;100.00;96610.00;4933442;29;19930;-85
2022/10/02 09:03:33;;;;;;;;;;;;;;;12.70;100.00;96601.78;4949882;29;20362;-83
2022/10/02 09:08:56;;;;;;;;;;;;;;;12.78;100.00;96600.94;5069263;23;19954;-85
2022/10/02 09:11:45;;;;;;;;;;;;;;;12.80;100.00;96590.50;4933163;29;19947;-85
2022/10/02 09:17:03;;;;;;;;;;;;;;;12.86;100.00;96601.25;5465044;23;19928;-88
2022/10/02 09:19:41;;;;;;;;;;;;;;;12.79;100.00;96601.78;4941272;28;19934;-84
2022/10/02 09:22:14;;;;;;;;;;;;;;;12.83;100.00;96591.78;4972596;28;19985;-81
2022/10/02 09:24:54;;;;;;;;;;;;;;;12.91;100.00;96590.16;4942213;29;19929;-87
2022/10/02 09:27:31;;;;;;;;;;;;;;;12.92;100.00;96586.28;4972581;28;20286;-86
2022/10/02 09:30:12;;;;;;;;;;;;;;;12.97;100.00;96584.19;4972318;28;19990;-87
2022/10/02 09:33:02;;;;;;;;;;;;;;;12.89;100.00;96582.25;4951532;28;19954;-87
2022/10/02 09:36:02;;;;;;;;;;;;;;;13.00;100.00;96566.34;4935227;29;19930;-87
2022/10/02 09:38:46;;;;;;;;;;;;;;;12.98;100.00;96557.63;4951212;29;19961;-86
2022/10/02 09:41:35;;;;;;;;;;;;;;;13.06;100.00;96537.69;4934860;29;20283;-87
2022/10/02 09:44:27;;;;;;;;;;;;;;;13.13;100.00;96543.41;4950539;29;19961;-83
2022/10/02 09:47:10;;;;;;;;;;;;;;;13.19;100.00;96541.28;4962362;28;19922;-87
2022/10/02 09:49:50;;;;;;;;;;;;;;;13.18;100.00;96545.97;4969547;28;19953;-86
2022/10/02 09:52:40;;;;;;;;;;;;;;;13.14;100.00;96538.75;4954431;28;19961;-86
2022/10/02 10:00:25;;;;;;;;;;;;;;;13.01;100.00;96524.19;5595123;23;19933;-87
2022/10/02 10:03:13;;;;;;;;;;;;;;;13.08;100.00;96527.19;4973879;28;19930;-88
2022/10/02 10:05:51;;;;;;;;;;;;;;;13.17;100.00;96525.22;4976233;28;19945;-88
2022/10/02 10:11:43;;;;;;;;;;;;;;;13.06;100.00;96515.81;4971649;28;19961;-85
2022/10/02 10:14:28;;;;;;;;;;;;;;;13.20;100.00;96513.63;4970162;28;19922;-86
2022/10/02 10:17:18;;;;;;;;;;;;;;;13.27;100.00;96504.94;4972112;28;20123;-86
2022/10/02 10:19:59;;;;;;;;;;;;;;;13.37;100.00;96509.22;4976539;28;19930;-86
2022/10/02 10:22:38;;;;;;;;;;;;;;;13.20;100.00;96508.13;4970168;28;19969;-87
2022/10/02 10:25:32;;;;;;;;;;;;;;;13.33;100.00;96514.53;4967551;28;19922;-82
2022/10/02 10:28:33;;;;;;;;;;;;;;;13.09;100.00;96512.41;4911578;29;19927;-82
2022/10/02 10:31:17;;;;;;;;;;;;;;;13.27;100.00;96494.00;4947731;29;19923;-83
2022/10/02 10:33:58;;;;;;;;;;;;;;;13.00;100.00;96508.94;4970246;29;19940;-84
2022/10/02 10:39:38;;;;;;;;;;;;;;;13.19;100.00;96487.41;4972335;28;19928;-84
2022/10/02 10:42:24;;;;;;;;;;;;;;;13.20;100.00;96482.72;4970674;28;19957;-84
2022/10/02 10:45:18;;;;;;;;;;;;;;;13.29;100.00;96470.66;4971500;28;19932;-84
2022/10/02 10:48:06;;;;;;;;;;;;;;;13.24;100.00;96473.56;4955818;29;20362;-85
2022/10/02 10:50:43;;;;;;;;;;;;;;;13.24;100.00;96467.31;4971004;28;20366;-83
2022/10/02 10:53:28;;;;;;;;;;;;;;;13.39;100.00;96463.97;4961007;28;20006;-82
2022/10/02 10:56:18;;;;;;;;;;;;;;;13.49;100.00;96465.53;4952154;29;20412;-85
2022/10/02 10:58:58;;;;;;;;;;;;;;;13.61;100.00;96468.31;4941623;29;19929;-84
2022/10/02 11:01:35;;;;;;;;;;;;;;;13.63;100.00;96465.25;4950564;29;19923;-83
2022/10/02 11:04:17;;;;;;;;;;;;;;;13.51;99.27;96461.31;4951248;29;19923;-80
2022/10/02 11:07:01;;;;;;;;;;;;;;;13.63;99.27;96468.78;4953160;29;19998;-85
2022/10/02 11:09:39;;;;;;;;;;;;;;;13.78;99.11;96461.88;4959015;29;19982;-85
2022/10/02 11:12:15;;;;;;;;;;;;;;;13.73;99.61;96449.22;4952474;29;19922;-83
2022/10/02 11:14:51;;;;;;;;;;;;;;;13.78;99.01;96449.03;4934195;29;19962;-82
2022/10/02 11:17:26;;;;;;;;;;;;;;;13.73;99.42;96468.38;4956381;29;19927;-87
2022/10/02 11:20:00;;;;;;;;;;;;;;;13.83;99.49;96450.72;4954636;29;19923;-85
2022/10/02 11:22:44;;;;;;;;;;;;;;;13.80;99.16;96440.47;4948915;29;19923;-83
2022/10/02 11:25:24;;;;;;;;;;;;;;;13.80;99.67;96435.78;4936501;29;20306;-86
2022/10/02 11:28:05;;;;;;;;;;;;;;;13.90;100.00;96452.94;4955616;29;19922;-86
2022/10/02 11:30:37;;;;;;;;;;;;;;;14.02;99.71;96431.06;4953696;29;19923;-87
2022/10/02 11:33:29;;;;;;;;;;;;;;;14.15;100.00;96429.97;4955429;29;19923;-86
2022/10/02 11:36:20;;;;;;;;;;;;;;;14.21;99.17;96423.13;4955798;29;19922;-86
2022/10/02 11:38:54;;;;;;;;;;;;;;;14.27;99.71;96419.03;4906973;29;19943;-87
2022/10/02 11:41:45;;;;;;;;;;;;;;;14.41;100.00;96413.25;4935373;29;19934;-85
2022/10/02 11:44:16;;;;;;;;;;;;;;;14.42;98.19;96406.63;4934613;29;19974;-86
2022/10/02 11:46:57;;;;;;;;;;;;;;;14.63;97.61;96400.25;4935593;29;19923;-87
2022/10/02 11:49:41;;;;;;;;;;;;;;;14.55;97.09;96399.22;4936235;29;19946;-87
2022/10/02 11:52:20;;;;;;;;;;;;;;;14.64;96.56;96379.94;4937729;29;19930;-88
2022/10/02 11:54:53;;;;;;;;;;;;;;;14.84;96.38;96379.81;4941535;29;19907;-88
2022/10/02 11:57:33;;;;;;;;;;;;;;;14.83;96.13;96372.72;4923841;29;19962;-89
2022/10/02 12:00:13;;;;;;;;;;;;;;;14.77;96.38;96368.63;4941884;29;19930;-88
2022/10/02 12:02:44;;;;;;;;;;;;;;;14.98;96.21;96364.91;4941969;29;19929;-88
2022/10/02 12:05:20;;;;;;;;;;;;;;;15.19;95.89;96362.81;4941039;29;19907;-86
2022/10/02 12:07:54;;;;;;;;;;;;;;;15.31;96.25;96359.25;4924976;29;19923;-89
2022/10/02 12:10:26;;;;;;;;;;;;;;;15.40;96.03;96366.19;4940905;29;19954;-90
2022/10/02 12:12:59;;;;;;;;;;;;;;;15.44;95.70;96352.53;4939455;29;19923;-88
2022/10/02 12:15:30;;;;;;;;;;;;;;;15.48;95.60;96355.41;4942825;29;19929;-85
2022/10/02 12:18:11;;;;;;;;;;;;;;;15.56;95.67;96351.72;4952262;29;19922;-83
2022/10/02 12:26:59;;;;;;;;;;;;;;;15.51;95.75;96341.78;4895952;29;19934;-88
2022/10/02 12:29:31;;;;;;;;;;;;;;;15.42;96.77;96343.09;4886135;29;19914;-86
2022/10/02 12:32:06;;;;;;;;;;;;;;;15.42;95.61;96329.38;4931613;29;20268;-87
2022/10/02 12:34:40;;;;;;;;;;;;;;;15.56;95.29;96324.28;4952925;28;20632;-85
2022/10/02 12:37:13;;;;;;;;;;;;;;;15.54;96.32;96354.00;4955754;28;19907;-82
2022/10/02 12:39:45;;;;;;;;;;;;;;;15.54;96.77;96384.19;4958411;28;19931;-90
2022/10/02 12:50:40;;;;;;;;;;;;;;;14.35;90.39;96363.34;4923147;29;19907;-82
2022/10/02 12:53:25;;;;;;;;;;;;;;;14.32;90.38;96376.94;4928844;29;19910;-81
2022/10/02 13:01:30;;;;;;;;;;;;;;;13.90;94.70;96396.25;4988669;23;19922;-82
2022/10/02 13:04:17;;;;;;;;;;;;;;;13.84;94.32;96411.28;4961065;28;19926;-82
2022/10/02 13:07:09;;;;;;;;;;;;;;;13.74;94.87;96417.19;4937280;28;19946;-82
2022/10/02 13:09:45;;;;;;;;;;;;;;;13.59;96.19;96407.66;4961622;28;19931;-84
2022/10/02 13:12:25;;;;;;;;;;;;;;;13.43;97.15;96414.88;4961355;28;19906;-83
2022/10/02 13:17:34;;;;;;;;;;;;;;;13.38;97.49;96409.63;4948311;23;19942;-84
2022/10/02 13:20:15;;;;;;;;;;;;;;;13.25;96.39;96419.69;4940587;29;19931;-84
2022/10/02 13:25:30;;;;;;;;;;;;;;;13.12;97.92;96420.72;5778044;23;19950;-81
2022/10/02 13:28:01;;;;;;;;;;;;;;;13.08;98.54;96420.56;4956082;28;19961;-80
2022/10/02 13:30:34;;;;;;;;;;;;;;;13.16;98.19;96425.19;4959065;28;19921;-82
2022/10/02 13:33:18;;;;;;;;;;;;;;;13.05;98.37;96426.72;4960157;28;19974;-82
2022/10/02 13:35:56;;;;;;;;;;;;;;;13.05;98.20;96427.53;4941821;29;19907;-81
2022/10/02 13:38:37;;;;;;;;;;;;;;;13.06;98.58;96422.84;4957926;28;19907;-81
2022/10/02 13:41:12;;;;;;;;;;;;;;;13.08;98.50;96412.38;4955983;29;19982;-80
2022/10/02 13:48:56;;;;;;;;;;;;;;;13.21;98.01;96419.56;5584204;23;19910;-87
2022/10/02 13:51:27;;;;;;;;;;;;;;;13.17;98.11;96413.13;4978726;28;19906;-87
2022/10/02 13:54:03;;;;;;;;;;;;;;;13.17;97.99;96407.66;5129028;23;19922;-88
2022/10/02 13:56:36;;;;;;;;;;;;;;;13.29;97.50;96421.41;4976359;28;19922;-88
2022/10/02 13:59:11;;;;;;;;;;;;;;;13.35;97.12;96413.00;4976622;28;19931;-82
2022/10/02 14:01:43;;;;;;;;;;;;;;;13.38;96.99;96412.34;4975355;28;19923;-88
2022/10/02 14:04:28;;;;;;;;;;;;;;;13.20;96.81;96412.44;4975985;28;19933;-86
2022/10/02 14:07:00;;;;;;;;;;;;;;;13.23;97.86;96417.28;4978197;28;19948;-89
2022/10/02 14:09:36;;;;;;;;;;;;;;;13.30;97.32;96417.53;4965435;28;19950;-89
2022/10/02 14:12:20;;;;;;;;;;;;;;;13.24;97.32;96407.94;4983591;28;19966;-84
2022/10/02 14:14:59;;;;;;;;;;;;;;;13.32;96.61;96415.28;4966936;28;19962;-88
2022/10/02 14:17:33;;;;;;;;;;;;;;;13.27;95.53;96423.69;4983053;28;19927;-89
2022/10/02 14:20:03;;;;;;;;;;;;;;;13.32;95.44;96426.22;4967573;29;19929;-89
2022/10/02 14:22:37;;;;;;;;;;;;;;;13.35;95.26;96423.94;4965793;29;19906;-88
2022/10/02 14:25:25;;;;;;;;;;;;;;;13.41;94.67;96420.66;4983335;28;19941;-79